Time;durP1;ratioP1;P1;durP2;ratioP2;P2;SDS_P1;SDS_P2;PMS_P1;PMS_P2;Temp;Humidity;BMP_temperature;BMP_pressure;BME280_temperature;BME280_humidity;BME280_pressure;Samples;Min_cycle;Max_cycle;Signal;HPM_P1;HPM_P2
2023/07/06 00:03:14;;;;;;;2.93;2.60;;;19.50;30.00;;;;;;10402394;28;20226;-74
2023/07/06 00:08:17;;;;;;;2.83;2.60;;;19.50;29.80;;;;;;10400581;28;20253;-74
2023/07/06 00:13:22;;;;;;;3.37;2.60;;;19.40;29.70;;;;;;10401965;28;20229;-73
2023/07/06 00:18:25;;;;;;;2.73;2.47;;;19.20;29.80;;;;;;10383877;28;20279;-74
2023/07/06 00:23:31;;;;;;;2.80;2.30;;;19.00;29.80;;;;;;10401241;28;20694;-72
2023/07/06 00:28:36;;;;;;;3.40;2.50;;;18.80;30.10;;;;;;10397787;28;20295;-74
2023/07/06 00:33:39;;;;;;;2.63;2.43;;;18.60;31.00;;;;;;10401237;28;20235;-74
2023/07/06 00:38:42;;;;;;;3.63;2.77;;;18.60;30.90;;;;;;10400274;28;20227;-72
2023/07/06 00:43:52;;;;;;;2.37;2.20;;;18.60;30.90;;;;;;10400076;28;20329;-73
2023/07/06 00:48:56;;;;;;;3.33;2.60;;;18.50;32.00;;;;;;10398733;28;20239;-74
2023/07/06 00:54:02;;;;;;;2.23;2.03;;;18.50;31.30;;;;;;10396606;28;20221;-74
2023/07/06 00:59:09;;;;;;;3.20;2.43;;;18.50;32.00;;;;;;10403898;28;20222;-75
2023/07/06 01:04:15;;;;;;;3.03;2.80;;;18.50;32.30;;;;;;10408723;28;20221;-74
2023/07/06 01:09:19;;;;;;;2.87;2.67;;;18.40;32.40;;;;;;10407772;28;20221;-73
2023/07/06 01:14:24;;;;;;;2.83;2.63;;;18.40;31.90;;;;;;10406461;28;20284;-74
2023/07/06 01:19:53;;;;;;;3.73;2.27;;;18.40;32.70;;;;;;10405210;28;20221;-74
2023/07/06 01:25:17;;;;;;;3.17;2.47;;;18.40;33.20;;;;;;10407646;28;20253;-74
2023/07/06 01:30:49;;;;;;;2.80;2.47;;;18.50;33.50;;;;;;10407281;28;20245;-75
2023/07/06 01:36:03;;;;;;;2.50;2.30;;;18.50;33.10;;;;;;10407106;28;20233;-75
2023/07/06 01:41:06;;;;;;;2.57;2.37;;;18.50;32.90;;;;;;10404854;28;20225;-74
2023/07/06 01:46:10;;;;;;;5.37;2.73;;;18.60;32.40;;;;;;10406005;28;20280;-74
2023/07/06 01:51:21;;;;;;;4.60;2.57;;;18.60;32.20;;;;;;10402664;28;20774;-74
2023/07/06 01:56:33;;;;;;;2.67;2.47;;;18.60;32.80;;;;;;10405868;28;20608;-74
2023/07/06 02:01:40;;;;;;;2.37;2.17;;;18.70;32.80;;;;;;10404864;28;20637;-73
2023/07/06 02:06:45;;;;;;;2.57;2.37;;;18.80;32.60;;;;;;10405458;28;20295;-75
2023/07/06 02:11:51;;;;;;;3.40;2.20;;;18.80;32.30;;;;;;10405716;28;20222;-74
2023/07/06 02:16:55;;;;;;;2.17;2.07;;;18.80;32.00;;;;;;10402467;28;20226;-74
2023/07/06 02:22:03;;;;;;;2.20;2.10;;;18.80;32.00;;;;;;10398371;28;20230;-75
2023/07/06 02:27:09;;;;;;;3.53;2.70;;;18.80;32.30;;;;;;10403729;28;20248;-75
2023/07/06 02:32:13;;;;;;;2.87;2.30;;;18.80;32.10;;;;;;10404129;28;20481;-73
2023/07/06 02:37:17;;;;;;;2.57;2.37;;;18.70;31.80;;;;;;10400815;28;20229;-75
2023/07/06 02:42:21;;;;;;;2.50;2.20;;;18.50;32.10;;;;;;10406145;28;20232;-75
2023/07/06 02:47:25;;;;;;;3.07;2.50;;;18.50;31.90;;;;;;10404066;28;20246;-74
2023/07/06 02:52:29;;;;;;;2.27;2.07;;;18.50;32.10;;;;;;10402582;28;20264;-75
2023/07/06 02:57:32;;;;;;;2.30;2.10;;;18.50;32.30;;;;;;10402172;28;20237;-74
2023/07/06 03:02:36;;;;;;;2.40;2.20;;;18.40;31.90;;;;;;10404030;28;20224;-75
2023/07/06 03:07:42;;;;;;;2.80;2.50;;;18.40;32.00;;;;;;10405486;28;20264;-75
2023/07/06 03:12:48;;;;;;;2.60;2.40;;;18.40;32.60;;;;;;10405003;28;20229;-75
2023/07/06 03:17:52;;;;;;;3.93;2.37;;;18.40;32.10;;;;;;10403142;28;20319;-75
2023/07/06 03:22:56;;;;;;;3.13;2.20;;;18.30;32.00;;;;;;10403712;28;20221;-74
2023/07/06 03:28:00;;;;;;;2.77;2.40;;;18.30;32.20;;;;;;10405012;28;20235;-75
2023/07/06 03:33:03;;;;;;;3.90;2.40;;;18.30;32.00;;;;;;10402673;28;20218;-75
2023/07/06 03:38:07;;;;;;;2.27;2.07;;;18.30;32.10;;;;;;10403536;28;20229;-75
2023/07/06 03:43:11;;;;;;;2.50;2.17;;;18.20;32.20;;;;;;10400824;28;20222;-74
2023/07/06 03:48:14;;;;;;;3.03;2.13;;;18.20;32.00;;;;;;10401479;28;20234;-73
2023/07/06 03:53:18;;;;;;;2.77;2.57;;;18.20;32.20;;;;;;10403644;28;20300;-73
2023/07/06 03:58:21;;;;;;;2.80;2.50;;;18.10;32.50;;;;;;10402023;28;20261;-76
2023/07/06 04:03:26;;;;;;;3.90;2.30;;;18.10;32.20;;;;;;10400918;28;20229;-75
2023/07/06 04:08:32;;;;;;;3.57;2.37;;;18.10;32.30;;;;;;10399805;28;20232;-75
2023/07/06 04:13:35;;;;;;;3.00;2.70;;;18.10;33.00;;;;;;10399364;28;20233;-76
2023/07/06 04:18:39;;;;;;;3.60;2.63;;;18.10;32.50;;;;;;10389101;28;20237;-77
2023/07/06 04:23:44;;;;;;;3.30;3.00;;;18.00;32.70;;;;;;10399084;28;20229;-75
2023/07/06 04:28:49;;;;;;;5.93;3.00;;;18.10;33.40;;;;;;10402792;28;20233;-76
2023/07/06 04:33:52;;;;;;;4.73;2.80;;;18.00;33.30;;;;;;10398530;28;20229;-75
2023/07/06 04:38:58;;;;;;;6.33;3.03;;;17.90;33.10;;;;;;10405203;28;20225;-75
2023/07/06 04:44:01;;;;;;;3.20;2.87;;;17.90;33.60;;;;;;10401833;28;20724;-76
2023/07/06 04:49:05;;;;;;;3.23;2.93;;;17.80;33.40;;;;;;10397282;28;20704;-75
2023/07/06 04:54:12;;;;;;;3.00;2.67;;;17.70;33.40;;;;;;10397958;28;20328;-78
2023/07/06 04:59:16;;;;;;;3.83;2.83;;;17.50;34.30;;;;;;10398989;28;20276;-77
2023/07/06 05:04:20;;;;;;;5.30;3.17;;;17.40;34.20;;;;;;10397887;28;20721;-76
2023/07/06 05:09:25;;;;;;;4.27;3.00;;;17.30;34.10;;;;;;10397875;28;20229;-77
2023/07/06 05:14:28;;;;;;;3.60;3.30;;;17.40;34.40;;;;;;10397679;28;20912;-76
2023/07/06 05:19:32;;;;;;;3.17;2.70;;;17.50;34.30;;;;;;10397522;28;20227;-76
2023/07/06 05:24:38;;;;;;;3.50;2.80;;;17.60;34.40;;;;;;10401320;28;20252;-78
2023/07/06 05:29:41;;;;;;;5.57;2.93;;;17.70;35.20;;;;;;10383338;28;20221;-78
2023/07/06 05:34:45;;;;;;;4.23;2.90;;;17.90;35.00;;;;;;10398461;28;20229;-81
2023/07/06 05:39:50;;;;;;;3.40;3.10;;;18.10;35.10;;;;;;10411742;28;20658;-79
2023/07/06 05:44:54;;;;;;;4.07;2.80;;;18.30;35.50;;;;;;10413946;28;20236;-79
2023/07/06 05:49:57;;;;;;;3.10;2.80;;;18.60;35.30;;;;;;10408120;28;20730;-79
2023/07/06 05:55:01;;;;;;;3.83;3.00;;;18.80;35.50;;;;;;10409948;28;20698;-79
2023/07/06 06:00:09;;;;;;;3.97;2.60;;;19.00;35.60;;;;;;10409220;28;20337;-79
2023/07/06 06:05:14;;;;;;;3.57;2.97;;;19.20;35.20;;;;;;10406022;28;20217;-79
2023/07/06 06:10:22;;;;;;;3.20;2.90;;;19.40;34.90;;;;;;10407127;28;20694;-78
2023/07/06 06:15:27;;;;;;;3.50;3.20;;;19.60;35.20;;;;;;10405911;28;20229;-80
2023/07/06 06:20:30;;;;;;;3.30;3.00;;;19.70;34.80;;;;;;10407939;28;20600;-79
2023/07/06 06:25:36;;;;;;;3.53;3.00;;;19.90;34.90;;;;;;10413604;28;20308;-79
2023/07/06 06:30:40;;;;;;;3.20;2.90;;;20.00;34.80;;;;;;10409340;28;20230;-78
2023/07/06 06:35:44;;;;;;;3.60;3.30;;;20.20;34.70;;;;;;10408382;28;20293;-80
2023/07/06 06:40:49;;;;;;;3.90;3.30;;;20.30;34.50;;;;;;10410839;28;20278;-79
2023/07/06 06:45:52;;;;;;;4.00;3.57;;;20.50;34.70;;;;;;10410703;28;20847;-79
2023/07/06 06:50:56;;;;;;;4.30;3.30;;;20.60;34.30;;;;;;10415065;28;20234;-79
2023/07/06 06:56:04;;;;;;;3.20;2.90;;;20.80;34.30;;;;;;10413121;28;20283;-79
2023/07/06 07:01:09;;;;;;;4.07;2.77;;;20.90;34.00;;;;;;10405143;28;20221;-78
2023/07/06 07:06:14;;;;;;;3.00;2.70;;;21.10;34.00;;;;;;10403594;28;20232;-79
2023/07/06 07:11:20;;;;;;;2.97;2.77;;;21.30;33.90;;;;;;10407806;28;20229;-78
2023/07/06 07:16:26;;;;;;;2.53;2.33;;;21.50;33.70;;;;;;10408379;28;21146;-78
2023/07/06 07:21:29;;;;;;;2.97;2.67;;;21.60;34.30;;;;;;10415679;28;20233;-78
2023/07/06 07:26:34;;;;;;;2.70;2.50;;;21.80;33.30;;;;;;10414441;28;20226;-79
2023/07/06 07:31:38;;;;;;;3.70;2.67;;;22.00;32.90;;;;;;10410950;28;20236;-79
2023/07/06 07:36:41;;;;;;;3.23;2.83;;;22.30;32.60;;;;;;10400100;28;20256;-79
2023/07/06 07:41:46;;;;;;;5.60;2.93;;;22.50;32.20;;;;;;10395189;28;20259;-80
2023/07/06 07:46:50;;;;;;;2.87;2.67;;;22.60;31.60;;;;;;10383342;28;20294;-82
2023/07/06 07:51:53;;;;;;;3.03;2.73;;;22.80;31.80;;;;;;10405175;28;20244;-80
2023/07/06 07:56:57;;;;;;;3.90;2.80;;;23.00;31.30;;;;;;10408273;28;20784;-82
2023/07/06 08:02:01;;;;;;;3.03;2.60;;;23.20;30.50;;;;;;10401443;28;20232;-80
2023/07/06 08:07:05;;;;;;;4.07;2.50;;;23.40;30.90;;;;;;10405124;28;20336;-79
2023/07/06 08:12:10;;;;;;;3.83;2.30;;;23.50;30.20;;;;;;10407617;28;20217;-78
2023/07/06 08:17:16;;;;;;;3.00;2.50;;;23.70;29.10;;;;;;10398370;28;20236;-80
2023/07/06 08:22:22;;;;;;;2.63;2.30;;;23.90;29.70;;;;;;10405175;28;20257;-80
2023/07/06 08:27:27;;;;;;;3.03;2.23;;;24.00;29.40;;;;;;10397058;28;20621;-81
2023/07/06 08:32:32;;;;;;;5.13;2.30;;;24.20;28.80;;;;;;10395450;28;20309;-79
2023/07/06 08:37:35;;;;;;;2.60;2.43;;;24.40;29.10;;;;;;10392807;28;20225;-79
2023/07/06 08:42:41;;;;;;;2.83;2.63;;;24.60;29.00;;;;;;10403107;28;20301;-83
2023/07/06 08:47:44;;;;;;;2.87;2.63;;;24.80;28.60;;;;;;10403479;28;20309;-81
2023/07/06 08:52:48;;;;;;;2.77;2.53;;;24.90;28.60;;;;;;10404400;28;21210;-82
2023/07/06 08:57:53;;;;;;;4.20;2.80;;;25.10;28.70;;;;;;10404651;28;20289;-77
2023/07/06 09:03:07;;;;;;;2.80;2.60;;;25.30;27.80;;;;;;10394046;28;20241;-77
2023/07/06 09:08:13;;;;;;;2.53;2.33;;;25.40;26.70;;;;;;10392302;28;20883;-75
2023/07/06 09:13:25;;;;;;;2.70;2.50;;;25.40;27.40;;;;;;10397321;28;20694;-75
2023/07/06 09:18:30;;;;;;;2.53;2.30;;;25.60;26.30;;;;;;10395758;28;20229;-78
2023/07/06 09:23:34;;;;;;;2.70;2.50;;;25.60;26.00;;;;;;10407693;28;20230;-80
2023/07/06 09:28:40;;;;;;;2.73;2.53;;;25.60;26.80;;;;;;10408355;28;20217;-79
2023/07/06 09:33:45;;;;;;;2.53;2.33;;;25.70;26.20;;;;;;10405348;28;20236;-77
2023/07/06 09:38:48;;;;;;;3.53;2.20;;;25.90;26.40;;;;;;10396300;28;20229;-76
2023/07/06 09:43:57;;;;;;;2.60;2.40;;;26.10;26.30;;;;;;10398934;28;20320;-76
2023/07/06 09:49:00;;;;;;;2.67;2.47;;;26.30;25.40;;;;;;10401271;28;20260;-79
2023/07/06 09:54:13;;;;;;;2.80;2.60;;;26.50;25.80;;;;;;10400917;28;20233;-75
2023/07/06 09:59:18;;;;;;;2.37;2.17;;;26.70;24.80;;;;;;10405403;28;20312;-75
2023/07/06 10:04:45;;;;;;;2.53;2.33;;;26.90;24.50;;;;;;10405450;28;20379;-76
2023/07/06 10:09:56;;;;;;;2.50;2.30;;;27.00;24.40;;;;;;10400672;28;20276;-76
2023/07/06 10:15:08;;;;;;;3.17;2.50;;;27.10;23.60;;;;;;10401980;28;20317;-76
2023/07/06 10:20:17;;;;;;;2.63;2.37;;;27.20;23.30;;;;;;10404605;28;20245;-76
2023/07/06 10:25:26;;;;;;;5.20;2.60;;;27.10;23.40;;;;;;10402680;28;20245;-76
2023/07/06 10:30:35;;;;;;;2.80;2.60;;;27.10;24.10;;;;;;10404001;28;20393;-76
2023/07/06 10:35:45;;;;;;;2.50;2.30;;;27.20;22.70;;;;;;10404442;28;20230;-76
2023/07/06 10:41:12;;;;;;;3.40;2.47;;;27.30;23.20;;;;;;10400290;28;20605;-76
2023/07/06 10:46:35;;;;;;;2.50;2.30;;;27.40;22.50;;;;;;10392601;28;20225;-75
2023/07/06 10:51:47;;;;;;;2.80;2.53;;;27.50;22.80;;;;;;10416373;28;20234;-79
2023/07/06 10:57:00;;;;;;;2.73;2.50;;;27.60;21.90;;;;;;10399649;28;20234;-79
2023/07/06 11:02:18;;;;;;;2.70;2.50;;;27.80;22.00;;;;;;10401539;28;20661;-79
2023/07/06 11:07:44;;;;;;;2.50;2.30;;;27.90;21.60;;;;;;10405732;28;20237;-77
2023/07/06 11:12:55;;;;;;;2.53;2.33;;;28.00;21.20;;;;;;10401087;28;20256;-76
2023/07/06 11:18:16;;;;;;;3.07;2.60;;;28.00;20.10;;;;;;10403996;28;20317;-79
2023/07/06 11:23:32;;;;;;;3.10;2.80;;;28.00;21.10;;;;;;10410181;28;20256;-81
2023/07/06 11:28:35;;;;;;;2.67;2.40;;;28.00;20.10;;;;;;10403963;28;20771;-79
2023/07/06 11:33:50;;;;;;;2.73;2.50;;;27.90;21.40;;;;;;10404389;28;20222;-81
2023/07/06 11:39:09;;;;;;;15.97;3.93;;;27.80;20.10;;;;;;10401397;28;20245;-76
2023/07/06 11:44:45;;;;;;;6.23;3.30;;;27.80;20.70;;;;;;10403515;28;20302;-79
2023/07/06 11:50:00;;;;;;;3.93;2.70;;;27.70;21.40;;;;;;10408190;28;20225;-80
2023/07/06 11:55:14;;;;;;;4.27;2.57;;;27.70;20.00;;;;;;10408402;28;20225;-79
2023/07/06 12:00:38;;;;;;;2.97;2.77;;;27.70;20.60;;;;;;10408895;28;20226;-79
2023/07/06 12:05:46;;;;;;;4.27;2.60;;;27.70;20.00;;;;;;10392332;28;20236;-75
2023/07/06 12:10:56;;;;;;;3.07;2.70;;;27.70;19.90;;;;;;10400259;28;20236;-76
2023/07/06 12:16:05;;;;;;;3.20;2.90;;;27.60;19.90;;;;;;10394334;28;20218;-76
2023/07/06 12:21:22;;;;;;;2.67;2.47;;;27.70;19.90;;;;;;10401105;28;20237;-76
2023/07/06 12:26:29;;;;;;;3.00;2.80;;;27.80;20.00;;;;;;10395326;28;20652;-75
2023/07/06 12:31:33;;;;;;;2.63;2.43;;;27.90;21.30;;;;;;10400652;28;20225;-75
2023/07/06 12:36:41;;;;;;;3.00;2.70;;;28.10;20.20;;;;;;10396697;28;20293;-75
2023/07/06 12:41:46;;;;;;;48.20;8.67;;;28.20;19.70;;;;;;10391263;28;20220;-75
2023/07/06 12:46:51;;;;;;;3.40;3.10;;;28.30;20.10;;;;;;10389467;28;20784;-75
2023/07/06 12:51:59;;;;;;;3.30;3.00;;;28.40;19.50;;;;;;10395840;28;20326;-75
2023/07/06 12:57:15;;;;;;;3.17;2.90;;;28.40;18.80;;;;;;10399043;28;20236;-75
2023/07/06 13:02:20;;;;;;;2.97;2.73;;;28.40;18.80;;;;;;10400368;28;20225;-75
2023/07/06 13:07:29;;;;;;;3.40;3.10;;;28.50;19.60;;;;;;10399895;28;20229;-74
2023/07/06 13:12:33;;;;;;;3.63;2.87;;;28.50;18.50;;;;;;10401013;28;20768;-77
2023/07/06 13:17:36;;;;;;;2.90;2.70;;;28.60;19.40;;;;;;10401062;28;20312;-78
2023/07/06 13:22:41;;;;;;;3.73;2.80;;;28.70;19.00;;;;;;10399424;28;20223;-75
2023/07/06 13:27:47;;;;;;;2.80;2.60;;;28.80;18.70;;;;;;10397509;28;20233;-79
2023/07/06 13:32:50;;;;;;;7.30;3.37;;;28.80;18.90;;;;;;10401271;28;20228;-76
2023/07/06 13:37:55;;;;;;;9.73;3.57;;;28.90;18.60;;;;;;10400823;28;20233;-76
2023/07/06 13:42:59;;;;;;;73.90;12.70;;;28.90;17.80;;;;;;10400732;28;20309;-76
2023/07/06 13:48:03;;;;;;;3.60;3.30;;;28.90;18.50;;;;;;10403275;28;20869;-76
2023/07/06 13:53:10;;;;;;;3.40;3.10;;;29.00;18.70;;;;;;10405349;28;20252;-76
2023/07/06 13:58:14;;;;;;;2.97;2.77;;;29.00;17.50;;;;;;10396101;28;20233;-76
2023/07/06 14:03:19;;;;;;;3.23;3.00;;;29.10;18.40;;;;;;10403463;28;20256;-78
2023/07/06 14:08:28;;;;;;;5.17;3.10;;;29.10;17.70;;;;;;10406887;28;20233;-76
2023/07/06 14:13:32;;;;;;;3.50;2.97;;;29.20;17.10;;;;;;10403398;28;20232;-77
2023/07/06 14:18:36;;;;;;;3.27;2.97;;;29.30;17.70;;;;;;10397416;28;20280;-75
2023/07/06 14:23:41;;;;;;;3.03;2.73;;;29.40;17.80;;;;;;10399670;28;20233;-77
2023/07/06 14:28:49;;;;;;;3.33;3.03;;;29.40;17.00;;;;;;10401813;28;20228;-77
2023/07/06 14:33:52;;;;;;;2.90;2.70;;;29.40;17.40;;;;;;10408403;28;20859;-76
2023/07/06 14:38:57;;;;;;;4.23;3.23;;;29.40;17.30;;;;;;10406084;28;20236;-76
2023/07/06 14:44:00;;;;;;;2.97;2.77;;;29.30;17.00;;;;;;10396247;28;20321;-76
2023/07/06 14:49:05;;;;;;;3.20;2.77;;;29.30;17.50;;;;;;10400179;28;20216;-75
2023/07/06 14:54:09;;;;;;;3.43;3.23;;;29.40;17.20;;;;;;10394671;28;20254;-77
2023/07/06 14:59:13;;;;;;;4.17;3.30;;;29.50;17.00;;;;;;10405660;28;20257;-76
2023/07/06 15:04:16;;;;;;;3.30;3.00;;;29.50;17.20;;;;;;10394214;28;20229;-76
2023/07/06 15:09:21;;;;;;;3.40;3.10;;;29.60;17.10;;;;;;10400524;28;20233;-75
2023/07/06 15:14:24;;;;;;;3.33;3.13;;;29.70;16.80;;;;;;10399884;28;20249;-74
2023/07/06 15:19:28;;;;;;;3.37;3.07;;;29.70;16.90;;;;;;10400593;28;20995;-75
2023/07/06 15:24:33;;;;;;;3.27;3.03;;;29.80;16.70;;;;;;10398579;28;20225;-75
2023/07/06 15:29:36;;;;;;;3.83;3.30;;;29.80;16.20;;;;;;10398373;28;20252;-75
2023/07/06 15:34:39;;;;;;;2.83;2.63;;;29.80;16.60;;;;;;10395808;28;20250;-77
2023/07/06 15:40:03;;;;;;;3.07;2.87;;;29.80;16.30;;;;;;10399664;28;20299;-76
2023/07/06 15:45:07;;;;;;;3.70;3.40;;;29.80;15.70;;;;;;10400540;28;20225;-77
2023/07/06 15:50:10;;;;;;;3.67;3.37;;;29.80;15.80;;;;;;10396225;28;20308;-76
2023/07/06 15:55:15;;;;;;;3.70;3.40;;;29.80;15.80;;;;;;10398972;28;20242;-76
2023/07/06 16:00:19;;;;;;;3.57;3.27;;;29.80;15.30;;;;;;10396360;28;20309;-76
2023/07/06 16:05:24;;;;;;;3.40;3.20;;;29.90;15.80;;;;;;10393555;28;20234;-75
2023/07/06 16:10:29;;;;;;;3.87;3.53;;;29.90;16.30;;;;;;10388451;28;20302;-75
2023/07/06 16:15:32;;;;;;;3.33;3.07;;;29.90;15.60;;;;;;10398509;28;20336;-75
2023/07/06 16:20:37;;;;;;;4.10;3.70;;;29.90;15.50;;;;;;10400066;28;20593;-75
2023/07/06 16:25:41;;;;;;;4.07;3.70;;;29.90;14.90;;;;;;10394283;28;20268;-75
2023/07/06 16:30:44;;;;;;;3.67;3.37;;;29.80;14.70;;;;;;10402417;28;20236;-75
2023/07/06 16:35:47;;;;;;;3.93;3.63;;;29.80;15.10;;;;;;10401512;28;20230;-76
2023/07/06 16:40:53;;;;;;;3.70;3.40;;;29.80;15.30;;;;;;10404264;28;20230;-76
2023/07/06 16:45:56;;;;;;;3.70;3.40;;;29.80;14.90;;;;;;10403913;28;20718;-76
2023/07/06 16:51:01;;;;;;;3.80;3.50;;;29.80;15.00;;;;;;10402377;28;20214;-76
2023/07/06 16:56:06;;;;;;;3.70;3.40;;;29.80;14.50;;;;;;10398512;28;20254;-76
2023/07/06 17:01:12;;;;;;;3.30;3.10;;;29.80;14.40;;;;;;10392603;28;20911;-75
2023/07/06 17:06:16;;;;;;;3.70;3.40;;;29.70;15.00;;;;;;10402515;28;20236;-75
2023/07/06 17:11:21;;;;;;;3.33;3.13;;;29.70;15.20;;;;;;10399769;28;20331;-75
2023/07/06 17:16:24;;;;;;;3.80;3.50;;;29.70;14.60;;;;;;10397314;28;20237;-74
2023/07/06 17:21:27;;;;;;;3.33;3.03;;;29.70;14.60;;;;;;10397380;28;20317;-74
2023/07/06 17:26:33;;;;;;;3.47;3.17;;;29.80;15.00;;;;;;10392616;28;20319;-77
2023/07/06 17:31:36;;;;;;;3.50;3.20;;;29.80;14.50;;;;;;10398883;28;20532;-74
2023/07/06 17:36:39;;;;;;;3.30;3.10;;;29.80;14.60;;;;;;10393989;28;20745;-74
2023/07/06 17:41:44;;;;;;;4.10;3.63;;;29.90;15.30;;;;;;10401174;28;20241;-76
2023/07/06 17:46:47;;;;;;;3.90;3.40;;;29.90;14.20;;;;;;10406363;28;20256;-76
2023/07/06 17:51:51;;;;;;;3.60;3.30;;;30.10;14.80;;;;;;10405257;28;20237;-76
2023/07/06 17:56:55;;;;;;;4.13;3.50;;;30.10;15.00;;;;;;10406881;28;20320;-76
2023/07/06 18:01:58;;;;;;;3.63;3.33;;;30.10;15.10;;;;;;10405712;28;20243;-76
2023/07/06 18:07:02;;;;;;;3.70;3.40;;;30.10;15.30;;;;;;10403873;28;20324;-76
2023/07/06 18:12:09;;;;;;;3.70;3.40;;;30.00;15.20;;;;;;10404398;28;20245;-76
2023/07/06 18:17:12;;;;;;;3.40;3.10;;;29.90;15.10;;;;;;10405300;28;20336;-76
2023/07/06 18:22:15;;;;;;;3.10;2.90;;;29.80;15.30;;;;;;10405885;28;20595;-76
2023/07/06 18:27:20;;;;;;;3.43;3.13;;;29.80;15.50;;;;;;10394473;28;20241;-74
2023/07/06 18:32:23;;;;;;;3.70;3.40;;;29.70;15.70;;;;;;10400193;28;20712;-74
2023/07/06 18:37:26;;;;;;;3.50;3.20;;;29.50;15.60;;;;;;10391159;28;20225;-78
2023/07/06 18:42:31;;;;;;;4.80;3.13;;;29.40;15.60;;;;;;10400288;28;20233;-74
2023/07/06 18:47:35;;;;;;;3.43;3.13;;;29.20;16.30;;;;;;10406881;28;20225;-76
2023/07/06 18:52:39;;;;;;;4.63;3.47;;;29.10;16.40;;;;;;10403390;28;20745;-76
2023/07/06 18:57:43;;;;;;;4.00;3.60;;;28.90;16.50;;;;;;10405353;28;20835;-76
2023/07/06 19:02:46;;;;;;;4.87;3.37;;;28.70;17.00;;;;;;10399405;28;20245;-78
2023/07/06 19:07:50;;;;;;;4.77;3.53;;;28.50;16.80;;;;;;10411167;28;20229;-78
2023/07/06 19:13:05;;;;;;;4.70;3.33;;;28.40;17.20;;;;;;10398650;28;20299;-76
2023/07/06 19:18:09;;;;;;;4.73;3.60;;;28.20;17.20;;;;;;10401280;28;20706;-75
2023/07/06 19:23:12;;;;;;;3.70;3.40;;;28.10;17.10;;;;;;10397827;28;20225;-74
2023/07/06 19:28:18;;;;;;;3.90;3.50;;;28.00;17.40;;;;;;10396961;28;20230;-76
2023/07/06 19:33:21;;;;;;;6.13;3.67;;;27.90;17.60;;;;;;10398585;28;20269;-76
2023/07/06 19:38:24;;;;;;;3.63;3.33;;;27.70;17.80;;;;;;10400472;28;20324;-76
2023/07/06 19:43:29;;;;;;;3.60;3.30;;;27.60;17.70;;;;;;10405363;28;20230;-76
2023/07/06 19:48:32;;;;;;;3.70;3.40;;;27.40;18.00;;;;;;10398544;28;20256;-76
2023/07/06 19:53:36;;;;;;;3.93;3.60;;;27.10;18.00;;;;;;10404330;28;20236;-76
2023/07/06 19:58:40;;;;;;;3.80;3.50;;;26.90;18.40;;;;;;10396767;28;20229;-76
2023/07/06 20:03:44;;;;;;;4.13;3.70;;;26.70;18.80;;;;;;10397913;28;20315;-76
2023/07/06 20:08:47;;;;;;;3.30;3.00;;;26.60;19.10;;;;;;10402776;28;20665;-76
2023/07/06 20:13:52;;;;;;;4.40;3.50;;;26.40;19.20;;;;;;10406929;28;20296;-76
2023/07/06 20:18:55;;;;;;;4.60;3.93;;;26.40;19.20;;;;;;10398533;28;20236;-76
2023/07/06 20:23:58;;;;;;;5.00;3.60;;;26.20;19.10;;;;;;10403211;28;20253;-77
2023/07/06 20:29:04;;;;;;;5.10;3.90;;;26.00;19.00;;;;;;10400422;28;20912;-77
2023/07/06 20:34:07;;;;;;;5.07;3.93;;;25.60;19.60;;;;;;10399745;28;20221;-78
2023/07/06 20:39:11;;;;;;;5.03;4.63;;;25.10;19.40;;;;;;10396646;28;20232;-75
2023/07/06 20:44:16;;;;;;;6.50;4.37;;;24.70;19.90;;;;;;10390839;28;20230;-75
2023/07/06 20:49:19;;;;;;;7.07;4.40;;;24.30;20.40;;;;;;10393489;28;20696;-75
2023/07/06 20:54:22;;;;;;;5.30;4.30;;;24.00;20.50;;;;;;10392881;28;20260;-75
2023/07/06 20:59:28;;;;;;;6.50;4.57;;;23.60;20.80;;;;;;10393782;28;20237;-75
2023/07/06 21:04:32;;;;;;;6.07;4.83;;;23.30;21.60;;;;;;10393783;28;20240;-75
2023/07/06 21:09:39;;;;;;;5.87;4.70;;;22.90;21.30;;;;;;10393727;28;20249;-74
2023/07/06 21:14:44;;;;;;;5.10;4.50;;;22.70;21.70;;;;;;10396656;28;20261;-75
2023/07/06 21:19:47;;;;;;;5.10;4.67;;;22.60;22.30;;;;;;10403242;28;20236;-74
2023/07/06 21:24:50;;;;;;;4.30;3.90;;;22.50;22.40;;;;;;10404147;28;20225;-75
2023/07/06 21:29:55;;;;;;;3.83;3.40;;;22.60;22.70;;;;;;10404229;28;20248;-74
2023/07/06 21:34:58;;;;;;;6.53;4.17;;;22.60;23.00;;;;;;10403752;28;20705;-74
2023/07/06 21:40:01;;;;;;;4.27;3.87;;;22.50;22.80;;;;;;10403856;28;20233;-74
2023/07/06 21:45:07;;;;;;;6.90;4.63;;;22.40;22.90;;;;;;10403275;28;20233;-74
2023/07/06 21:50:11;;;;;;;4.90;4.43;;;22.20;23.50;;;;;;10406522;28;20305;-74
2023/07/06 21:55:14;;;;;;;4.83;4.33;;;22.10;23.30;;;;;;10411845;28;20229;-74
2023/07/06 22:00:19;;;;;;;4.90;4.40;;;22.00;23.30;;;;;;10410926;28;20283;-75
2023/07/06 22:05:22;;;;;;;7.47;4.87;;;22.00;24.00;;;;;;10411357;28;20233;-74
2023/07/06 22:10:25;;;;;;;7.50;4.40;;;22.00;23.60;;;;;;10411185;28;20225;-74
2023/07/06 22:15:32;;;;;;;7.07;5.07;;;21.90;23.70;;;;;;10411010;28;20226;-74
2023/07/06 22:20:37;;;;;;;5.20;4.53;;;21.70;24.20;;;;;;10410778;28;20721;-74
2023/07/06 22:25:40;;;;;;;4.50;4.10;;;21.40;24.00;;;;;;10409076;28;20271;-75
2023/07/06 22:30:51;;;;;;;4.23;3.83;;;21.10;24.00;;;;;;10407898;28;20239;-74
2023/07/06 22:35:54;;;;;;;5.43;4.63;;;21.00;26.00;;;;;;10410036;28;20316;-74
2023/07/06 22:40:57;;;;;;;4.37;3.80;;;21.10;24.80;;;;;;10411146;28;20232;-74
2023/07/06 22:46:02;;;;;;;4.00;3.70;;;21.20;24.70;;;;;;10409637;28;20244;-74
2023/07/06 22:51:08;;;;;;;4.60;4.03;;;21.20;25.30;;;;;;10409850;28;20267;-74
2023/07/06 22:56:11;;;;;;;5.27;4.40;;;21.10;24.90;;;;;;10409661;28;20284;-74
2023/07/06 23:01:18;;;;;;;4.70;4.23;;;21.10;24.90;;;;;;10409184;28;20662;-74
2023/07/06 23:06:21;;;;;;;5.07;4.40;;;21.00;25.60;;;;;;10409526;28;20256;-74
2023/07/06 23:11:25;;;;;;;5.73;4.90;;;21.00;25.00;;;;;;10408981;28;20230;-74
2023/07/06 23:16:31;;;;;;;6.10;4.90;;;21.00;25.10;;;;;;10408409;28;20233;-74
2023/07/06 23:21:40;;;;;;;5.77;5.20;;;20.80;25.80;;;;;;10409631;28;20786;-74
2023/07/06 23:26:44;;;;;;;5.93;4.73;;;20.60;25.40;;;;;;10400401;28;20313;-74
2023/07/06 23:31:48;;;;;;;5.23;3.93;;;20.40;25.60;;;;;;10407863;28;20228;-74
2023/07/06 23:36:55;;;;;;;4.47;3.73;;;20.10;26.00;;;;;;10407025;28;20603;-74
2023/07/06 23:41:58;;;;;;;3.77;3.47;;;19.80;25.60;;;;;;10408065;28;20233;-75
2023/07/06 23:47:03;;;;;;;4.20;3.80;;;19.70;26.10;;;;;;10407554;28;20236;-74
2023/07/06 23:52:07;;;;;;;4.30;3.90;;;19.60;26.60;;;;;;10407865;28;20214;-75
2023/07/06 23:57:11;;;;;;;4.37;3.37;;;19.70;26.60;;;;;;10407414;28;20239;-74
